Flight Track Log - Related Links

Times and Time Zones

All times are in EDT time to prevent confusion due to time zone crossing. See the SKW6492 flight status page for this flight to view local times or setup timezone preferences in your user account.

Time Position Orientation Groundspeed Altitude Reporting Facility
EDT Latitude Longitude Course Direction KTS MPH feet Rate Location/Type
Thu 09:51:50 PM 39.9167 -104.7000 346° North 190 219 7,200  Level Denver TRACON
Thu 09:52:50 PM 39.9833 -104.6833 11° North 253 291 8,900 1,789 Climbing Denver TRACON
Thu 09:53:44 PM 40.0500 -104.6667 11° North 304 350 10,600 1,600 Climbing Denver TRACON
Thu 09:54:00 PM 40.2454 -105.0030 348° North  Level Estimated
Thu 09:54:50 PM 40.1500 -104.6833 353° North 339 390 12,100  Level Denver TRACON
Thu 09:55:00 PM 40.3411 -105.0860 346° North  Level Estimated
Thu 09:56:00 PM 40.4369 -105.1693 323° Northwest  Level Estimated
Thu 09:56:11 PM 40.2839 -104.7183 349° North 342 394 15,400  Level Denver Center
Thu 09:57:00 PM 40.5325 -105.2528 346° North  Level Estimated
Thu 09:57:13 PM 40.3806 -104.7450 348° North 357 411 16,400  Level Denver Center
Thu 09:58:15 PM 40.4886 -104.7733 349° North 393 452 17,700 1,597 Climbing Denver Center
Thu 09:59:17 PM 40.6033 -104.8047 348° North 392 451 19,700 1,452 Climbing Denver Center
Thu 10:00:19 PM 40.7136 -104.8325 349° North 403 464 20,700 968 Climbing Denver Center
Thu 10:01:21 PM 40.8292 -104.8667 347° North 402 463 21,700 1,073 Climbing Denver Center
Thu 10:02:22 PM 40.9400 -104.9253 338° Northwest 424 488 22,900 1,268 Climbing Denver Center
Thu 10:03:24 PM 41.0583 -104.9819 340° North 422 486 24,300 1,403 Climbing Denver Center
Thu 10:04:26 PM 41.1636 -105.0336 340° North 420 483 25,800 1,113 Climbing Denver Center
Thu 10:05:28 PM 41.2661 -105.0861 339° North 415 478 26,600 677 Climbing Denver Center
Thu 10:06:30 PM 41.3944 -105.1494 340° North 434 499 27,200 537 Climbing Denver Center
Thu 10:07:31 PM 41.5061 -105.2067 339° North 448 516 27,700 732 Climbing Denver Center
Thu 10:08:33 PM 41.6250 -105.3061 328° Northwest 456 525 28,700 968 Climbing Denver Center
Thu 10:09:35 PM 41.7144 -105.4125 318° Northwest 451 519 29,700 1,016 Climbing Denver Center
Thu 10:10:37 PM 41.8167 -105.5347 318° Northwest 443 510 30,800 726 Climbing Denver Center
Thu 10:11:39 PM 41.9061 -105.6453 317° Northwest 452 520 31,200 484 Climbing Denver Center
Thu 10:12:41 PM 41.9969 -105.7553 318° Northwest 457 526 31,800 683 Climbing Denver Center
Thu 10:13:42 PM 42.1028 -105.8850 318° Northwest 460 529 32,600 732 Climbing Denver Center
Thu 10:14:44 PM 42.1922 -105.9967 317° Northwest 457 526 33,300 677 Climbing Denver Center
Thu 10:15:46 PM 42.2981 -106.1261 318° Northwest 458 527 34,000 339 Climbing Denver Center
Thu 10:16:48 PM 42.3894 -106.2403 317° Northwest 463 533 34,000  Level Denver Center
Thu 10:17:50 PM 42.5000 -106.3758 318° Northwest 478 550 34,000  Level Denver Center
Thu 10:18:51 PM 42.5942 -106.4936 317° Northwest 479 551 34,000  Level Denver Center
Thu 10:19:53 PM 42.7011 -106.6292 317° Northwest 475 547 34,000  Level Denver Center
Thu 10:20:55 PM 42.7931 -106.7442 317° Northwest 470 541 34,000  Level Denver Center
Thu 10:21:57 PM 42.8836 -106.8592 317° Northwest 466 536 34,000  Level Denver Center
Thu 10:22:45 PM 42.9575 -106.9542 317° Northwest 461 531 34,000  Level Salt Lake Center
Thu 10:23:46 PM 43.0492 -107.0711 317° Northwest 454 522 34,000  Level Salt Lake Center
Thu 10:24:48 PM 43.1411 -107.1903 317° Northwest 454 522 34,000  Level Salt Lake Center
Thu 10:25:50 PM 43.2544 -107.3356 317° Northwest 463 533 34,000  Level Salt Lake Center
Thu 10:26:51 PM 43.3492 -107.4589 317° Northwest 469 540 34,000  Level Salt Lake Center
Thu 10:27:52 PM 43.4436 -107.5808 317° Northwest 466 536 34,000  Level Salt Lake Center
Thu 10:28:54 PM 43.5372 -107.7047 316° Northwest 466 536 34,000  Level Salt Lake Center
Thu 10:29:56 PM 43.6300 -107.8278 316° Northwest 463 533 34,000 -585 Level Salt Lake Center
Thu 10:30:57 PM 43.7222 -107.9500 316° Northwest 461 531 32,800 -2,293 Descending Salt Lake Center
Thu 10:31:59 PM 43.8125 -108.0692 316° Northwest 451 519 29,300 -3,415 Descending Salt Lake Center
Thu 10:33:00 PM 43.9028 -108.1886 316° Northwest 449 517 25,800 -3,805 Descending Salt Lake Center
Thu 10:34:02 PM 44.0092 -108.3311 316° Northwest 443 510 21,500 -3,871 Descending Salt Lake Center
Thu 10:35:04 PM 44.0922 -108.4458 315° West 429 494 17,800 -3,415 Descending Salt Lake Center
Thu 10:36:05 PM 44.1739 -108.5556 316° Northwest 420 483 14,500 -2,829 Descending Salt Lake Center
Thu 10:37:07 PM 44.2500 -108.6572 316° Northwest 405 466 12,000 -1,366 Descending Salt Lake Center
Thu 10:38:08 PM 44.3186 -108.7486 316° Northwest 378 435 11,700 -1,220 Descending Salt Lake Center
Thu 10:39:10 PM 44.3775 -108.8278 316° Northwest 336 387 9,500 -1,317 Descending Salt Lake Center
Thu 10:40:11 PM 44.4292 -108.8989 316° Northwest 301 346 9,000 -244 Descending Salt Lake Center
Thu 10:41:13 PM 44.4831 -108.9108 351° North 258 297 9,000  Level Salt Lake Center
Thu 10:42:15 PM 44.5144 -108.8347 60° Northeast 237 273 9,000  Level Salt Lake Center
Thu 10:43:16 PM 44.5453 -108.7433 65° Northeast 225 259 9,000  Level Salt Lake Center
Thu 10:44:18 PM 44.5789 -108.6867 50° Northeast 214 246 9,000 -484 Level Salt Lake Center
Thu 10:45:20 PM 44.6261 -108.7242 331° Northwest 206 237 8,000 -683 Descending Salt Lake Center
Thu 10:46:21 PM 44.6522 -108.7781 304° West 190 219 7,600 -244 Descending Salt Lake Center
Thu 10:47:23 PM 44.6247 -108.8397 238° Southwest 189 217 7,500 -97 Descending Salt Lake Center
Thu 10:48:25 PM 44.5958 -108.8908 232° Southwest 179 206 7,400 -488 Descending Salt Lake Center
Thu 10:49:26 PM 44.5675 -108.9428 233° Southwest 172 198 6,500 -927 Descending Salt Lake Center
Thu 10:50:28 PM 44.5397 -108.9917 231° Southwest 167 192 5,500 -968 Descending Salt Lake Center

Login

Don't have an account? Register now (free) for customized features, flight alerts, and more!